KABE/ABE METAR and TAF weather

Enter ICAO airport designator
Station Type Date Time Source
KABE METAR 2021/07/29 07:16 UTC NOAA

KABE 290716Z 00000KT 10SM SCT023 BKN100 17/14 A3001 RMK AO2 T01720144


Station Type Date Time Source
KABE Decoded METAR 2021/07/29 07:16 UTC NOAA

LEHIGH VALLEY INTERNATIONAL AIRPORT, PA, United States (KABE) 40-39N 075-27W 114M
Jul 29, 2021 - 03:16 AM EDT / 2021.07.29 0716 UTC
Wind: Calm:0
Visibility: 10 mile(s):0
Sky conditions: mostly cloudy
Temperature: 63.0 F (17.2 C)
Dew Point: 57.9 F (14.4 C)
Relative Humidity: 83%
Pressure (altimeter): 30.01 in. Hg (1016 hPa)
ob: KABE 290716Z 00000KT 10SM SCT023 BKN100 17/14 A3001 RMK AO2 T01720144
cycle: 7

Station Type Date Time Source
KABE TAF 2021/07/29 06:42 UTC NOAA

TAF KABE 290539Z 2906/3006 14004KT P6SM SCT080 SCT120
FM291000 17002KT P6SM VCSH BKN020
FM291400 19006KT P6SM BKN035
FM291900 21010KT P6SM -SHRA VCTS BKN045CB
TEMPO 2921/2924 VRB10G30KT 2SM TSRA OVC050CB
FM300400 26008KT P6SM BKN020

Example: see airport list